sensor_id;sensor_type;location;lat;lon;timestamp;P1;durP1;ratioP1;P2;durP2;ratioP2
25301;SDS011;13243;50.888;4.724;2022-12-31T00:01:56;0.70;;;0.70;;
25301;SDS011;13243;50.888;4.724;2022-12-31T00:06:58;1.83;;;1.00;;
25301;SDS011;13243;50.888;4.724;2022-12-31T00:12:00;1.15;;;0.88;;
25301;SDS011;13243;50.888;4.724;2022-12-31T00:17:02;0.80;;;0.68;;
25301;SDS011;13243;50.888;4.724;2022-12-31T00:22:04;0.75;;;0.75;;
25301;SDS011;13243;50.888;4.724;2022-12-31T00:27:06;0.70;;;0.70;;
25301;SDS011;13243;50.888;4.724;2022-12-31T00:32:08;0.52;;;0.52;;
25301;SDS011;13243;50.888;4.724;2022-12-31T00:37:09;0.93;;;0.60;;
25301;SDS011;13243;50.888;4.724;2022-12-31T00:42:11;0.70;;;0.57;;
25301;SDS011;13243;50.888;4.724;2022-12-31T00:47:13;1.00;;;0.80;;
25301;SDS011;13243;50.888;4.724;2022-12-31T00:52:15;0.52;;;0.52;;
25301;SDS011;13243;50.888;4.724;2022-12-31T00:57:18;0.45;;;0.45;;
25301;SDS011;13243;50.888;4.724;2022-12-31T01:02:20;0.73;;;0.52;;
25301;SDS011;13243;50.888;4.724;2022-12-31T01:07:22;1.65;;;0.60;;
25301;SDS011;13243;50.888;4.724;2022-12-31T01:12:24;0.47;;;0.43;;
25301;SDS011;13243;50.888;4.724;2022-12-31T01:17:25;1.88;;;0.40;;
25301;SDS011;13243;50.888;4.724;2022-12-31T01:22:27;1.75;;;0.55;;
25301;SDS011;13243;50.888;4.724;2022-12-31T01:27:29;0.88;;;0.65;;
25301;SDS011;13243;50.888;4.724;2022-12-31T01:32:31;0.75;;;0.70;;
25301;SDS011;13243;50.888;4.724;2022-12-31T01:37:33;1.08;;;0.40;;
25301;SDS011;13243;50.888;4.724;2022-12-31T01:42:35;1.60;;;0.35;;
25301;SDS011;13243;50.888;4.724;2022-12-31T01:47:38;1.15;;;0.40;;
25301;SDS011;13243;50.888;4.724;2022-12-31T01:52:47;0.77;;;0.60;;
25301;SDS011;13243;50.888;4.724;2022-12-31T01:57:54;0.45;;;0.40;;
25301;SDS011;13243;50.888;4.724;2022-12-31T02:03:01;0.65;;;0.32;;
25301;SDS011;13243;50.888;4.724;2022-12-31T02:08:05;0.32;;;0.32;;
25301;SDS011;13243;50.888;4.724;2022-12-31T02:13:08;0.63;;;0.47;;
25301;SDS011;13243;50.888;4.724;2022-12-31T02:18:20;0.70;;;0.50;;
25301;SDS011;13243;50.888;4.724;2022-12-31T02:34:19;0.50;;;0.40;;
25301;SDS011;13243;50.888;4.724;2022-12-31T02:39:25;1.02;;;0.50;;
25301;SDS011;13243;50.888;4.724;2022-12-31T02:44:30;4.57;;;0.68;;
25301;SDS011;13243;50.888;4.724;2022-12-31T02:59:55;1.83;;;0.55;;
25301;SDS011;13243;50.888;4.724;2022-12-31T03:05:18;4.60;;;0.60;;
25301;SDS011;13243;50.888;4.724;2022-12-31T03:10:24;3.75;;;0.70;;
25301;SDS011;13243;50.888;4.724;2022-12-31T03:15:29;3.90;;;0.85;;
25301;SDS011;13243;50.888;4.724;2022-12-31T03:20:34;10.50;;;0.70;;
25301;SDS011;13243;50.888;4.724;2022-12-31T03:26:02;7.65;;;0.90;;
25301;SDS011;13243;50.888;4.724;2022-12-31T03:31:11;1.45;;;1.02;;
25301;SDS011;13243;50.888;4.724;2022-12-31T03:36:13;1.63;;;0.70;;
25301;SDS011;13243;50.888;4.724;2022-12-31T03:41:15;2.20;;;1.23;;
25301;SDS011;13243;50.888;4.724;2022-12-31T03:46:17;3.13;;;0.80;;
25301;SDS011;13243;50.888;4.724;2022-12-31T03:51:19;4.93;;;0.60;;
25301;SDS011;13243;50.888;4.724;2022-12-31T03:56:21;0.52;;;0.50;;
25301;SDS011;13243;50.888;4.724;2022-12-31T04:01:22;0.52;;;0.50;;
25301;SDS011;13243;50.888;4.724;2022-12-31T04:06:25;2.60;;;0.70;;
25301;SDS011;13243;50.888;4.724;2022-12-31T04:11:27;2.80;;;0.50;;
25301;SDS011;13243;50.888;4.724;2022-12-31T04:16:29;2.83;;;0.60;;
25301;SDS011;13243;50.888;4.724;2022-12-31T04:21:32;3.75;;;0.63;;
25301;SDS011;13243;50.888;4.724;2022-12-31T04:26:35;3.08;;;0.75;;
25301;SDS011;13243;50.888;4.724;2022-12-31T04:31:38;1.27;;;0.60;;
25301;SDS011;13243;50.888;4.724;2022-12-31T04:36:39;4.25;;;0.75;;
25301;SDS011;13243;50.888;4.724;2022-12-31T04:41:41;0.55;;;0.47;;
25301;SDS011;13243;50.888;4.724;2022-12-31T04:46:43;3.95;;;0.95;;
25301;SDS011;13243;50.888;4.724;2022-12-31T04:51:45;0.85;;;0.60;;
25301;SDS011;13243;50.888;4.724;2022-12-31T04:56:47;1.65;;;0.80;;
25301;SDS011;13243;50.888;4.724;2022-12-31T05:01:48;3.58;;;0.70;;
25301;SDS011;13243;50.888;4.724;2022-12-31T05:06:50;2.03;;;0.50;;
25301;SDS011;13243;50.888;4.724;2022-12-31T05:11:52;1.63;;;0.68;;
25301;SDS011;13243;50.888;4.724;2022-12-31T05:16:54;1.55;;;0.73;;
25301;SDS011;13243;50.888;4.724;2022-12-31T05:21:56;3.22;;;0.75;;
25301;SDS011;13243;50.888;4.724;2022-12-31T05:27:17;0.88;;;0.50;;
25301;SDS011;13243;50.888;4.724;2022-12-31T05:32:18;4.35;;;0.60;;
25301;SDS011;13243;50.888;4.724;2022-12-31T05:37:20;0.70;;;0.40;;
25301;SDS011;13243;50.888;4.724;2022-12-31T05:42:22;2.15;;;0.82;;
25301;SDS011;13243;50.888;4.724;2022-12-31T05:47:24;2.10;;;0.50;;
25301;SDS011;13243;50.888;4.724;2022-12-31T05:52:26;0.90;;;0.40;;
25301;SDS011;13243;50.888;4.724;2022-12-31T05:57:28;1.80;;;0.63;;
25301;SDS011;13243;50.888;4.724;2022-12-31T06:02:29;3.33;;;0.68;;
25301;SDS011;13243;50.888;4.724;2022-12-31T06:07:32;2.72;;;0.70;;
25301;SDS011;13243;50.888;4.724;2022-12-31T06:12:33;8.48;;;0.80;;
25301;SDS011;13243;50.888;4.724;2022-12-31T06:17:36;6.13;;;0.77;;
25301;SDS011;13243;50.888;4.724;2022-12-31T06:22:38;2.35;;;1.02;;
25301;SDS011;13243;50.888;4.724;2022-12-31T06:27:39;3.17;;;0.80;;
25301;SDS011;13243;50.888;4.724;2022-12-31T06:32:41;2.70;;;0.85;;
25301;SDS011;13243;50.888;4.724;2022-12-31T06:37:43;5.53;;;1.15;;
25301;SDS011;13243;50.888;4.724;2022-12-31T06:42:45;4.80;;;0.98;;
25301;SDS011;13243;50.888;4.724;2022-12-31T06:47:47;2.13;;;0.85;;
25301;SDS011;13243;50.888;4.724;2022-12-31T06:52:48;3.60;;;0.70;;
25301;SDS011;13243;50.888;4.724;2022-12-31T06:57:50;2.40;;;0.82;;
25301;SDS011;13243;50.888;4.724;2022-12-31T07:23:48;4.40;;;1.13;;
25301;SDS011;13243;50.888;4.724;2022-12-31T07:28:59;3.17;;;0.80;;
25301;SDS011;13243;50.888;4.724;2022-12-31T07:34:40;5.60;;;0.70;;
25301;SDS011;13243;50.888;4.724;2022-12-31T07:40:02;3.58;;;0.80;;
25301;SDS011;13243;50.888;4.724;2022-12-31T07:50:44;2.58;;;0.77;;
25301;SDS011;13243;50.888;4.724;2022-12-31T07:55:46;3.75;;;0.65;;
25301;SDS011;13243;50.888;4.724;2022-12-31T08:00:54;4.18;;;1.25;;
25301;SDS011;13243;50.888;4.724;2022-12-31T08:06:09;1.73;;;0.68;;
25301;SDS011;13243;50.888;4.724;2022-12-31T08:16:43;1.75;;;0.52;;
25301;SDS011;13243;50.888;4.724;2022-12-31T08:22:12;3.55;;;1.23;;
25301;SDS011;13243;50.888;4.724;2022-12-31T08:27:11;3.28;;;0.88;;
25301;SDS011;13243;50.888;4.724;2022-12-31T08:32:24;1.90;;;0.90;;
25301;SDS011;13243;50.888;4.724;2022-12-31T08:37:34;1.73;;;0.93;;
25301;SDS011;13243;50.888;4.724;2022-12-31T08:43:00;4.70;;;1.30;;
25301;SDS011;13243;50.888;4.724;2022-12-31T08:53:19;3.40;;;0.90;;
25301;SDS011;13243;50.888;4.724;2022-12-31T09:19:44;4.95;;;1.00;;
25301;SDS011;13243;50.888;4.724;2022-12-31T09:24:47;2.53;;;1.10;;
25301;SDS011;13243;50.888;4.724;2022-12-31T09:30:03;3.17;;;0.82;;
25301;SDS011;13243;50.888;4.724;2022-12-31T09:50:53;5.47;;;1.02;;
25301;SDS011;13243;50.888;4.724;2022-12-31T10:07:27;6.53;;;1.60;;
25301;SDS011;13243;50.888;4.724;2022-12-31T10:13:06;6.35;;;1.42;;
25301;SDS011;13243;50.888;4.724;2022-12-31T11:23:24;3.55;;;1.05;;
25301;SDS011;13243;50.888;4.724;2022-12-31T11:44:48;2.67;;;0.93;;
25301;SDS011;13243;50.888;4.724;2022-12-31T11:50:50;7.68;;;1.30;;
25301;SDS011;13243;50.888;4.724;2022-12-31T12:01:07;5.75;;;1.33;;
25301;SDS011;13243;50.888;4.724;2022-12-31T12:06:17;4.78;;;1.35;;
25301;SDS011;13243;50.888;4.724;2022-12-31T12:11:24;3.78;;;1.20;;
25301;SDS011;13243;50.888;4.724;2022-12-31T12:16:30;4.47;;;1.42;;
25301;SDS011;13243;50.888;4.724;2022-12-31T12:21:34;7.90;;;1.73;;
25301;SDS011;13243;50.888;4.724;2022-12-31T12:26:49;3.72;;;1.20;;
25301;SDS011;13243;50.888;4.724;2022-12-31T12:31:57;5.47;;;1.40;;
25301;SDS011;13243;50.888;4.724;2022-12-31T12:42:28;8.13;;;1.60;;
25301;SDS011;13243;50.888;4.724;2022-12-31T12:47:31;5.28;;;1.40;;
25301;SDS011;13243;50.888;4.724;2022-12-31T12:57:45;4.15;;;1.58;;
25301;SDS011;13243;50.888;4.724;2022-12-31T13:19:04;5.53;;;1.40;;
25301;SDS011;13243;50.888;4.724;2022-12-31T13:24:11;8.90;;;1.92;;
25301;SDS011;13243;50.888;4.724;2022-12-31T13:29:35;7.07;;;1.70;;
25301;SDS011;13243;50.888;4.724;2022-12-31T13:34:40;14.18;;;1.67;;
25301;SDS011;13243;50.888;4.724;2022-12-31T13:39:45;6.40;;;1.73;;
25301;SDS011;13243;50.888;4.724;2022-12-31T13:44:50;5.85;;;1.70;;
25301;SDS011;13243;50.888;4.724;2022-12-31T14:00:37;9.13;;;2.40;;
25301;SDS011;13243;50.888;4.724;2022-12-31T14:10:59;9.20;;;1.98;;
25301;SDS011;13243;50.888;4.724;2022-12-31T14:16:37;5.43;;;1.70;;
25301;SDS011;13243;50.888;4.724;2022-12-31T14:26:51;7.30;;;1.75;;
25301;SDS011;13243;50.888;4.724;2022-12-31T14:42:45;3.45;;;1.70;;
25301;SDS011;13243;50.888;4.724;2022-12-31T14:53:31;5.90;;;1.83;;
25301;SDS011;13243;50.888;4.724;2022-12-31T14:58:39;6.05;;;1.05;;
25301;SDS011;13243;50.888;4.724;2022-12-31T15:03:43;6.80;;;2.50;;
25301;SDS011;13243;50.888;4.724;2022-12-31T15:14:25;5.57;;;1.50;;
25301;SDS011;13243;50.888;4.724;2022-12-31T15:35:47;5.57;;;1.38;;
25301;SDS011;13243;50.888;4.724;2022-12-31T15:40:54;6.78;;;1.60;;
25301;SDS011;13243;50.888;4.724;2022-12-31T15:45:56;2.85;;;1.45;;
25301;SDS011;13243;50.888;4.724;2022-12-31T15:50:59;5.22;;;1.60;;
25301;SDS011;13243;50.888;4.724;2022-12-31T15:56:01;3.70;;;1.42;;
25301;SDS011;13243;50.888;4.724;2022-12-31T16:01:14;2.72;;;1.25;;
25301;SDS011;13243;50.888;4.724;2022-12-31T16:06:28;7.88;;;2.00;;
25301;SDS011;13243;50.888;4.724;2022-12-31T16:11:37;5.95;;;2.33;;
25301;SDS011;13243;50.888;4.724;2022-12-31T16:16:50;8.13;;;2.05;;
25301;SDS011;13243;50.888;4.724;2022-12-31T16:21:54;5.53;;;1.60;;
25301;SDS011;13243;50.888;4.724;2022-12-31T16:27:02;5.20;;;1.60;;
25301;SDS011;13243;50.888;4.724;2022-12-31T16:32:09;4.00;;;1.42;;
25301;SDS011;13243;50.888;4.724;2022-12-31T16:37:16;4.07;;;1.60;;
25301;SDS011;13243;50.888;4.724;2022-12-31T16:42:20;5.25;;;1.70;;
25301;SDS011;13243;50.888;4.724;2022-12-31T16:47:31;5.40;;;1.50;;
25301;SDS011;13243;50.888;4.724;2022-12-31T16:52:38;8.07;;;2.50;;
25301;SDS011;13243;50.888;4.724;2022-12-31T16:57:44;5.35;;;1.88;;
25301;SDS011;13243;50.888;4.724;2022-12-31T17:02:58;5.35;;;2.05;;
25301;SDS011;13243;50.888;4.724;2022-12-31T17:08:21;6.65;;;2.60;;
25301;SDS011;13243;50.888;4.724;2022-12-31T17:13:35;12.10;;;2.40;;
25301;SDS011;13243;50.888;4.724;2022-12-31T17:18:37;3.13;;;1.48;;
25301;SDS011;13243;50.888;4.724;2022-12-31T17:23:39;11.65;;;2.00;;
25301;SDS011;13243;50.888;4.724;2022-12-31T17:28:46;4.30;;;1.85;;
25301;SDS011;13243;50.888;4.724;2022-12-31T17:33:51;7.47;;;2.00;;
25301;SDS011;13243;50.888;4.724;2022-12-31T17:39:16;5.10;;;2.10;;
25301;SDS011;13243;50.888;4.724;2022-12-31T17:44:21;9.27;;;2.40;;
25301;SDS011;13243;50.888;4.724;2022-12-31T17:49:28;6.32;;;1.90;;
25301;SDS011;13243;50.888;4.724;2022-12-31T17:54:31;5.90;;;1.52;;
25301;SDS011;13243;50.888;4.724;2022-12-31T17:59:33;6.85;;;2.22;;
25301;SDS011;13243;50.888;4.724;2022-12-31T18:04:35;4.78;;;2.00;;
25301;SDS011;13243;50.888;4.724;2022-12-31T18:09:37;4.20;;;1.90;;
25301;SDS011;13243;50.888;4.724;2022-12-31T18:14:39;4.28;;;1.85;;
25301;SDS011;13243;50.888;4.724;2022-12-31T18:19:44;8.75;;;1.75;;
25301;SDS011;13243;50.888;4.724;2022-12-31T18:25:05;13.98;;;2.90;;
25301;SDS011;13243;50.888;4.724;2022-12-31T18:30:08;12.73;;;2.08;;
25301;SDS011;13243;50.888;4.724;2022-12-31T18:35:18;12.48;;;2.70;;
25301;SDS011;13243;50.888;4.724;2022-12-31T18:40:41;9.20;;;2.07;;
25301;SDS011;13243;50.888;4.724;2022-12-31T18:45:49;7.00;;;1.90;;
25301;SDS011;13243;50.888;4.724;2022-12-31T18:50:51;4.32;;;2.15;;
25301;SDS011;13243;50.888;4.724;2022-12-31T18:55:54;6.63;;;2.22;;
25301;SDS011;13243;50.888;4.724;2022-12-31T19:00:57;6.43;;;2.20;;
25301;SDS011;13243;50.888;4.724;2022-12-31T19:05:59;13.40;;;2.58;;
25301;SDS011;13243;50.888;4.724;2022-12-31T19:11:01;9.05;;;2.13;;
25301;SDS011;13243;50.888;4.724;2022-12-31T19:16:03;9.35;;;2.33;;
25301;SDS011;13243;50.888;4.724;2022-12-31T19:21:15;5.95;;;1.67;;
25301;SDS011;13243;50.888;4.724;2022-12-31T19:26:22;11.82;;;2.30;;
25301;SDS011;13243;50.888;4.724;2022-12-31T19:31:24;4.03;;;1.98;;
25301;SDS011;13243;50.888;4.724;2022-12-31T19:36:26;7.60;;;1.98;;
25301;SDS011;13243;50.888;4.724;2022-12-31T19:41:28;6.20;;;1.98;;
25301;SDS011;13243;50.888;4.724;2022-12-31T19:46:29;2.92;;;1.60;;
25301;SDS011;13243;50.888;4.724;2022-12-31T19:51:31;8.45;;;2.00;;
25301;SDS011;13243;50.888;4.724;2022-12-31T19:56:33;6.28;;;2.13;;
25301;SDS011;13243;50.888;4.724;2022-12-31T20:01:35;3.97;;;1.83;;
25301;SDS011;13243;50.888;4.724;2022-12-31T20:06:38;7.22;;;2.10;;
25301;SDS011;13243;50.888;4.724;2022-12-31T20:11:40;4.75;;;1.80;;
25301;SDS011;13243;50.888;4.724;2022-12-31T20:16:42;9.85;;;2.42;;
25301;SDS011;13243;50.888;4.724;2022-12-31T20:21:44;10.32;;;2.08;;
25301;SDS011;13243;50.888;4.724;2022-12-31T20:26:46;6.03;;;2.17;;
25301;SDS011;13243;50.888;4.724;2022-12-31T20:31:47;5.50;;;2.10;;
25301;SDS011;13243;50.888;4.724;2022-12-31T20:36:49;7.90;;;2.00;;
25301;SDS011;13243;50.888;4.724;2022-12-31T20:41:51;8.05;;;2.08;;
25301;SDS011;13243;50.888;4.724;2022-12-31T20:46:53;4.32;;;2.05;;
25301;SDS011;13243;50.888;4.724;2022-12-31T20:51:55;3.63;;;1.85;;
25301;SDS011;13243;50.888;4.724;2022-12-31T20:56:57;5.88;;;2.13;;
25301;SDS011;13243;50.888;4.724;2022-12-31T21:02:00;10.02;;;2.20;;
25301;SDS011;13243;50.888;4.724;2022-12-31T21:07:22;9.65;;;2.58;;
25301;SDS011;13243;50.888;4.724;2022-12-31T21:12:24;6.93;;;2.20;;
25301;SDS011;13243;50.888;4.724;2022-12-31T21:17:44;13.43;;;2.40;;
25301;SDS011;13243;50.888;4.724;2022-12-31T21:22:46;6.20;;;2.30;;
25301;SDS011;13243;50.888;4.724;2022-12-31T21:27:48;6.38;;;1.77;;
25301;SDS011;13243;50.888;4.724;2022-12-31T21:32:50;4.97;;;1.90;;
25301;SDS011;13243;50.888;4.724;2022-12-31T21:37:52;7.55;;;2.05;;
25301;SDS011;13243;50.888;4.724;2022-12-31T21:43:00;3.78;;;2.00;;
25301;SDS011;13243;50.888;4.724;2022-12-31T21:48:02;6.10;;;1.90;;
25301;SDS011;13243;50.888;4.724;2022-12-31T21:53:21;4.30;;;1.65;;
25301;SDS011;13243;50.888;4.724;2022-12-31T21:58:37;5.22;;;1.70;;
25301;SDS011;13243;50.888;4.724;2022-12-31T22:08:50;6.68;;;2.20;;
25301;SDS011;13243;50.888;4.724;2022-12-31T22:13:54;13.80;;;2.55;;
25301;SDS011;13243;50.888;4.724;2022-12-31T22:18:56;6.93;;;2.28;;
25301;SDS011;13243;50.888;4.724;2022-12-31T22:23:58;5.20;;;1.88;;
25301;SDS011;13243;50.888;4.724;2022-12-31T22:29:00;8.75;;;2.60;;
25301;SDS011;13243;50.888;4.724;2022-12-31T22:34:02;7.88;;;2.30;;
25301;SDS011;13243;50.888;4.724;2022-12-31T22:39:04;5.20;;;2.42;;
25301;SDS011;13243;50.888;4.724;2022-12-31T22:44:06;15.98;;;3.88;;
25301;SDS011;13243;50.888;4.724;2022-12-31T22:49:08;14.07;;;2.40;;
25301;SDS011;13243;50.888;4.724;2022-12-31T22:54:11;11.88;;;2.30;;
25301;SDS011;13243;50.888;4.724;2022-12-31T22:59:14;10.50;;;5.07;;
25301;SDS011;13243;50.888;4.724;2022-12-31T23:04:15;16.27;;;6.75;;
25301;SDS011;13243;50.888;4.724;2022-12-31T23:09:17;11.68;;;3.50;;
25301;SDS011;13243;50.888;4.724;2022-12-31T23:14:37;18.08;;;7.20;;
25301;SDS011;13243;50.888;4.724;2022-12-31T23:19:59;16.00;;;5.95;;
25301;SDS011;13243;50.888;4.724;2022-12-31T23:25:19;5.63;;;2.17;;
25301;SDS011;13243;50.888;4.724;2022-12-31T23:30:21;13.55;;;2.83;;
25301;SDS011;13243;50.888;4.724;2022-12-31T23:35:23;8.98;;;2.38;;
25301;SDS011;13243;50.888;4.724;2022-12-31T23:40:25;7.03;;;2.47;;
25301;SDS011;13243;50.888;4.724;2022-12-31T23:45:34;10.02;;;3.03;;
25301;SDS011;13243;50.888;4.724;2022-12-31T23:50:38;8.02;;;2.50;;
25301;SDS011;13243;50.888;4.724;2022-12-31T23:55:40;7.68;;;2.17;;
